Time;durP1;ratioP1;P1;durP2;ratioP2;P2;SDS_P1;SDS_P2;PMS_P1;PMS_P2;Temp;Humidity;BMP_temperature;BMP_pressure;BME280_temperature;BME280_humidity;BME280_pressure;Samples;Min_cycle;Max_cycle;Signal;HPM_P1;HPM_P2
2021/01/13 00:00:37;;;;;;;8.37;5.40;;;2.00;99.90;;;;;;5116794;28;20552;-45
2021/01/13 00:03:02;;;;;;;10.30;5.43;;;1.80;99.90;;;;;;5118499;28;20528;-45
2021/01/13 00:05:28;;;;;;;7.13;5.83;;;1.60;99.90;;;;;;5118868;28;20183;-45
2021/01/13 00:07:54;;;;;;;8.40;5.43;;;1.50;99.90;;;;;;5118448;28;20171;-44
2021/01/13 00:10:20;;;;;;;6.93;5.53;;;1.40;99.90;;;;;;5118479;28;20268;-45
2021/01/13 00:12:46;;;;;;;6.43;5.83;;;1.40;99.90;;;;;;5118519;28;20272;-45
2021/01/13 00:15:13;;;;;;;9.10;5.53;;;1.40;99.90;;;;;;5118700;28;20409;-45
2021/01/13 00:17:45;;;;;;;8.67;6.03;;;1.30;99.90;;;;;;5118251;28;20480;-45
2021/01/13 00:20:14;;;;;;;7.47;6.07;;;1.30;99.90;;;;;;5115278;28;20476;-45
2021/01/13 00:22:40;;;;;;;7.17;6.40;;;1.30;99.90;;;;;;5117359;28;20820;-45
2021/01/13 00:25:06;;;;;;;9.77;6.50;;;1.30;99.90;;;;;;5115923;28;20406;-45
2021/01/13 00:27:35;;;;;;;8.50;6.20;;;1.30;99.90;;;;;;5116345;28;20521;-45
2021/01/13 00:30:00;;;;;;;7.80;6.17;;;1.30;99.90;;;;;;5116220;28;20728;-45
2021/01/13 00:32:26;;;;;;;14.57;5.60;;;1.30;99.90;;;;;;5115292;28;20512;-45
2021/01/13 00:34:52;;;;;;;8.07;5.27;;;1.30;99.90;;;;;;5117238;28;20187;-45
2021/01/13 00:37:18;;;;;;;6.70;6.00;;;1.30;99.90;;;;;;5117105;28;20190;-45
2021/01/13 00:39:43;;;;;;;8.00;5.10;;;1.30;99.90;;;;;;5116303;28;20288;-45
2021/01/13 00:42:09;;;;;;;6.60;5.40;;;1.30;99.90;;;;;;5115952;28;20180;-45
2021/01/13 00:44:35;;;;;;;8.53;5.83;;;1.30;99.90;;;;;;5118284;28;20439;-45
2021/01/13 00:47:02;;;;;;;5.97;5.20;;;1.30;99.90;;;;;;5118192;28;20546;-45
2021/01/13 00:49:27;;;;;;;8.97;4.73;;;1.30;99.90;;;;;;5117481;28;20421;-45
2021/01/13 00:51:53;;;;;;;6.43;5.10;;;1.30;99.90;;;;;;5117842;28;20490;-45
2021/01/13 00:54:19;;;;;;;10.07;5.30;;;1.20;99.90;;;;;;5117878;28;20634;-45
2021/01/13 00:56:46;;;;;;;8.23;4.63;;;1.20;99.90;;;;;;5117705;28;20186;-45
2021/01/13 00:59:13;;;;;;;5.07;4.20;;;1.20;99.90;;;;;;5117589;28;20194;-45
2021/01/13 01:01:40;;;;;;;7.33;4.17;;;1.20;99.90;;;;;;5117577;28;20850;-45
2021/01/13 01:04:07;;;;;;;5.17;3.80;;;1.10;99.90;;;;;;5117250;28;20455;-45
2021/01/13 01:06:33;;;;;;;5.07;3.70;;;1.10;99.90;;;;;;5117453;28;20410;-45
2021/01/13 01:08:59;;;;;;;6.00;3.37;;;1.10;99.90;;;;;;5117856;28;20417;-45
2021/01/13 01:11:28;;;;;;;6.40;3.73;;;1.20;99.90;;;;;;5117499;28;20406;-45
2021/01/13 01:13:54;;;;;;;6.50;3.70;;;1.20;99.90;;;;;;5117354;28;20889;-45
2021/01/13 01:16:20;;;;;;;3.77;3.20;;;1.30;99.90;;;;;;5117189;28;20610;-45
2021/01/13 01:18:46;;;;;;;6.90;3.80;;;1.30;99.90;;;;;;5117610;28;20176;-45
2021/01/13 01:21:12;;;;;;;4.83;3.60;;;1.30;99.90;;;;;;5116008;28;20220;-45
2021/01/13 01:23:38;;;;;;;4.77;3.53;;;1.30;99.90;;;;;;5117472;28;20180;-45
2021/01/13 01:26:04;;;;;;;7.20;3.57;;;1.30;99.90;;;;;;5117588;28;20418;-44
2021/01/13 01:28:30;;;;;;;7.40;3.23;;;1.30;99.90;;;;;;5117874;28;20479;-45
2021/01/13 01:30:56;;;;;;;4.93;3.27;;;1.40;99.90;;;;;;5118883;28;20803;-45
2021/01/13 01:33:22;;;;;;;5.60;3.53;;;1.40;99.90;;;;;;5121490;28;20426;-45
2021/01/13 01:35:48;;;;;;;5.93;4.27;;;1.40;99.90;;;;;;5121357;28;20424;-45
2021/01/13 01:38:14;;;;;;;5.37;2.73;;;1.40;99.90;;;;;;5121333;28;20426;-45
2021/01/13 01:40:40;;;;;;;11.03;3.23;;;1.30;99.90;;;;;;5121242;28;20972;-45
2021/01/13 01:43:06;;;;;;;9.00;3.70;;;1.30;99.90;;;;;;5121481;28;20433;-45
2021/01/13 01:45:32;;;;;;;4.20;2.23;;;1.30;99.90;;;;;;5121409;28;20454;-45
2021/01/13 01:48:22;;;;;;;8.60;3.43;;;1.30;99.90;;;;;;5121592;28;20267;-45
2021/01/13 01:50:48;;;;;;;5.50;2.87;;;1.40;99.90;;;;;;5121429;28;20397;-45
2021/01/13 01:53:17;;;;;;;5.60;3.60;;;1.40;99.90;;;;;;5120129;28;20421;-45
2021/01/13 01:55:51;;;;;;;6.27;3.10;;;1.40;99.90;;;;;;5121560;28;20409;-45
2021/01/13 01:58:28;;;;;;;5.43;3.97;;;1.40;99.90;;;;;;5120954;27;20768;-45
2021/01/13 02:00:56;;;;;;;4.53;3.00;;;1.40;99.90;;;;;;5119590;28;20472;-45
2021/01/13 02:03:23;;;;;;;5.60;3.27;;;1.50;99.90;;;;;;5120873;28;20421;-45
2021/01/13 02:05:57;;;;;;;6.27;3.33;;;1.50;99.90;;;;;;5120968;28;20432;-45
2021/01/13 02:08:23;;;;;;;5.83;3.20;;;1.50;99.90;;;;;;5120287;28;20421;-45
2021/01/13 02:10:49;;;;;;;6.30;3.20;;;1.50;99.90;;;;;;5120677;28;20768;-45
2021/01/13 02:13:15;;;;;;;8.63;3.60;;;1.50;99.90;;;;;;5120809;28;20528;-45
2021/01/13 02:15:41;;;;;;;5.87;3.57;;;1.60;99.90;;;;;;5120529;28;20418;-45
2021/01/13 02:18:11;;;;;;;4.23;3.40;;;1.60;99.90;;;;;;5120716;28;20641;-45
2021/01/13 02:20:40;;;;;;;5.37;3.27;;;1.60;99.90;;;;;;5120800;28;20558;-45
2021/01/13 02:23:08;;;;;;;5.30;3.80;;;1.60;99.90;;;;;;5120602;28;20453;-45
2021/01/13 02:25:52;;;;;;;6.83;3.73;;;1.60;99.90;;;;;;5120764;28;20410;-45
2021/01/13 02:28:20;;;;;;;6.30;3.97;;;1.60;99.90;;;;;;5120473;28;20746;-45
2021/01/13 02:31:28;;;;;;;5.53;3.23;;;1.70;99.90;;;;;;5120374;28;20409;-45
2021/01/13 02:34:17;;;;;;;4.37;3.23;;;1.60;99.90;;;;;;5121200;27;20444;-45
2021/01/13 02:37:08;;;;;;;5.87;4.00;;;1.60;99.90;;;;;;5119285;28;20800;-45
2021/01/13 02:39:36;;;;;;;7.07;4.10;;;1.50;99.90;;;;;;5119583;27;20469;-45
2021/01/13 02:42:02;;;;;;;4.80;3.13;;;1.50;99.90;;;;;;5119317;28;20437;-45
2021/01/13 02:44:29;;;;;;;5.10;3.33;;;1.50;99.90;;;;;;5119816;28;20418;-45
2021/01/13 02:46:55;;;;;;;4.80;3.63;;;1.50;99.90;;;;;;5120413;28;20509;-45
2021/01/13 02:49:38;;;;;;;4.30;3.67;;;1.50;99.90;;;;;;5120059;28;20578;-45
2021/01/13 02:52:15;;;;;;;4.83;3.80;;;1.50;99.90;;;;;;5120041;27;20188;-45
2021/01/13 02:54:43;;;;;;;5.03;4.53;;;1.60;99.90;;;;;;5119712;28;20448;-45
2021/01/13 02:57:19;;;;;;;5.43;3.60;;;1.60;99.90;;;;;;5119990;28;20422;-45
2021/01/13 02:59:47;;;;;;;7.27;3.73;;;1.60;99.90;;;;;;5119709;28;20525;-45
2021/01/13 03:02:13;;;;;;;5.90;3.90;;;1.60;99.90;;;;;;5119814;28;20398;-45
2021/01/13 03:04:39;;;;;;;5.27;3.53;;;1.60;99.90;;;;;;5119597;28;20443;-45
2021/01/13 03:07:12;;;;;;;9.77;3.93;;;1.60;99.90;;;;;;5135848;27;20477;-45
2021/01/13 03:09:44;;;;;;;6.70;3.70;;;1.60;99.90;;;;;;5119888;27;20432;-45
2021/01/13 03:12:26;;;;;;;6.60;3.43;;;1.60;99.90;;;;;;5119672;28;20409;-45
2021/01/13 03:14:57;;;;;;;7.63;3.27;;;1.60;99.90;;;;;;5135520;27;20424;-45
2021/01/13 03:17:33;;;;;;;6.53;3.40;;;1.60;99.90;;;;;;5119341;28;20577;-45
2021/01/13 03:20:29;;;;;;;6.53;3.53;;;1.60;99.90;;;;;;5119596;28;21015;-45
2021/01/13 03:23:15;;;;;;;4.70;3.37;;;1.60;99.90;;;;;;5118405;28;20409;-45
2021/01/13 03:25:50;;;;;;;9.87;4.00;;;1.60;99.90;;;;;;5119157;28;20418;-45
2021/01/13 03:28:16;;;;;;;5.60;3.47;;;1.60;99.90;;;;;;5119131;28;20491;-45
2021/01/13 03:30:43;;;;;;;6.10;3.97;;;1.50;99.90;;;;;;5117604;28;20409;-45
2021/01/13 03:33:24;;;;;;;9.20;4.07;;;1.50;99.90;;;;;;5117979;28;20429;-45
2021/01/13 03:36:46;;;;;;;6.37;3.90;;;1.40;99.90;;;;;;5119359;28;20483;-45
2021/01/13 03:39:12;;;;;;;7.50;3.90;;;1.40;99.90;;;;;;5094621;28;20480;-45
2021/01/13 03:41:47;;;;;;;6.27;3.33;;;1.40;99.90;;;;;;5119259;27;20410;-45
2021/01/13 03:44:14;;;;;;;12.30;3.80;;;1.30;99.90;;;;;;5118802;28;20409;-45
2021/01/13 03:46:40;;;;;;;9.07;4.13;;;1.40;99.90;;;;;;5118482;28;20417;-45
2021/01/13 03:49:08;;;;;;;5.20;3.67;;;1.40;99.90;;;;;;5119091;28;20414;-45
2021/01/13 03:51:52;;;;;;;5.60;3.90;;;1.40;99.90;;;;;;5117370;28;20410;-45
2021/01/13 03:54:18;;;;;;;5.53;3.30;;;1.30;99.90;;;;;;5118513;28;20498;-45
2021/01/13 03:56:53;;;;;;;5.30;3.90;;;1.30;99.90;;;;;;5117661;28;20479;-45
2021/01/13 03:59:25;;;;;;;10.30;4.50;;;1.20;99.90;;;;;;5118261;28;20413;-45
2021/01/13 04:01:54;;;;;;;6.83;4.30;;;1.20;99.90;;;;;;5116901;28;20425;-45
2021/01/13 04:04:32;;;;;;;14.37;4.87;;;1.20;99.90;;;;;;5116908;28;20424;-45
2021/01/13 04:07:00;;;;;;;10.90;5.50;;;1.20;99.90;;;;;;5117671;28;20673;-45
2021/01/13 04:09:27;;;;;;;6.47;4.73;;;1.20;99.90;;;;;;5117044;28;20490;-45
2021/01/13 04:12:15;;;;;;;7.33;4.60;;;1.20;99.90;;;;;;5116062;28;20426;-45
2021/01/13 04:14:48;;;;;;;5.63;4.90;;;1.30;99.90;;;;;;5117040;28;20595;-45
2021/01/13 04:17:15;;;;;;;6.10;4.30;;;1.30;99.90;;;;;;5116369;28;20897;-45
2021/01/13 04:19:44;;;;;;;8.43;4.67;;;1.30;99.90;;;;;;5116727;28;20881;-45
2021/01/13 04:22:15;;;;;;;8.23;4.97;;;1.30;99.90;;;;;;5116941;28;20413;-45
2021/01/13 04:24:46;;;;;;;6.60;3.70;;;1.30;99.90;;;;;;5133076;27;20535;-45
2021/01/13 04:27:17;;;;;;;5.83;5.23;;;1.30;99.90;;;;;;5116835;28;20820;-45
2021/01/13 04:29:44;;;;;;;9.70;4.70;;;1.30;99.90;;;;;;5116433;28;20432;-45
2021/01/13 04:32:11;;;;;;;7.90;3.87;;;1.30;99.90;;;;;;5115625;28;20746;-45
2021/01/13 04:34:38;;;;;;;6.13;3.87;;;1.20;99.90;;;;;;5115040;28;20425;-45
2021/01/13 04:37:06;;;;;;;5.70;4.40;;;1.20;99.90;;;;;;5115670;28;20437;-45
2021/01/13 04:39:32;;;;;;;5.87;4.10;;;1.20;99.90;;;;;;5116252;28;20917;-45
2021/01/13 04:42:02;;;;;;;7.00;4.40;;;1.20;99.90;;;;;;5116960;28;20844;-45
2021/01/13 04:44:45;;;;;;;8.70;4.57;;;1.10;99.90;;;;;;5117816;28;20445;-45
2021/01/13 04:47:11;;;;;;;4.33;3.70;;;1.10;99.90;;;;;;5117119;28;20418;-45
2021/01/13 04:49:38;;;;;;;6.30;3.80;;;1.10;99.90;;;;;;5117507;28;20417;-45
2021/01/13 04:52:09;;;;;;;6.27;4.80;;;1.00;99.90;;;;;;5117755;28;20527;-45
2021/01/13 04:54:37;;;;;;;5.37;4.40;;;1.10;99.90;;;;;;5117690;28;20413;-45
2021/01/13 04:57:32;;;;;;;7.77;4.43;;;1.00;99.90;;;;;;5117736;28;20417;-45
2021/01/13 05:00:11;;;;;;;8.10;4.30;;;1.00;99.90;;;;;;5117839;28;20557;-45
2021/01/13 05:03:21;;;;;;;12.23;4.80;;;1.00;99.90;;;;;;5117686;28;20500;-45
2021/01/13 05:06:03;;;;;;;7.33;4.80;;;0.90;99.90;;;;;;5116392;28;20536;-45
2021/01/13 05:08:29;;;;;;;7.63;5.10;;;0.90;99.90;;;;;;5121058;28;20417;-45
2021/01/13 05:11:09;;;;;;;6.47;4.90;;;1.00;99.90;;;;;;5121247;28;20529;-45
2021/01/13 05:13:35;;;;;;;8.30;4.50;;;1.00;99.90;;;;;;5121649;28;20412;-45
2021/01/13 05:16:11;;;;;;;11.10;4.80;;;0.90;99.90;;;;;;5121159;28;20421;-45
2021/01/13 05:18:53;;;;;;;8.50;5.20;;;0.90;99.90;;;;;;5120843;28;20511;-45
2021/01/13 05:21:20;;;;;;;5.80;4.17;;;0.90;99.90;;;;;;5121471;28;20533;-45
2021/01/13 05:23:48;;;;;;;9.90;5.37;;;0.90;99.90;;;;;;5121034;28;20414;-45
2021/01/13 05:26:40;;;;;;;9.73;4.83;;;0.90;99.90;;;;;;5121691;28;20704;-45
2021/01/13 05:29:24;;;;;;;8.50;5.80;;;0.90;99.90;;;;;;5117465;28;20524;-45
2021/01/13 05:31:51;;;;;;;8.67;5.93;;;0.90;99.90;;;;;;5118946;28;20405;-45
2021/01/13 05:34:18;;;;;;;9.90;4.90;;;0.80;99.90;;;;;;5119066;28;20409;-45
2021/01/13 05:37:08;;;;;;;7.83;5.10;;;0.90;99.90;;;;;;5119431;27;20521;-45
2021/01/13 05:39:35;;;;;;;8.40;4.27;;;0.90;99.90;;;;;;5118664;28;20526;-45
2021/01/13 05:42:02;;;;;;;7.37;4.60;;;0.90;99.90;;;;;;5119685;28;20444;-45
2021/01/13 05:44:30;;;;;;;5.87;4.40;;;0.80;99.90;;;;;;5119969;27;20416;-45
2021/01/13 05:47:04;;;;;;;7.60;5.00;;;0.80;99.90;;;;;;5120060;28;20409;-45
2021/01/13 05:49:31;;;;;;;12.93;5.10;;;0.80;99.90;;;;;;5121045;28;20421;-44
2021/01/13 05:52:07;;;;;;;7.80;5.23;;;0.80;99.90;;;;;;5121093;28;20409;-45
2021/01/13 05:54:37;;;;;;;6.83;4.80;;;0.80;99.90;;;;;;5121445;28;20508;-46
2021/01/13 05:57:03;;;;;;;13.83;5.60;;;0.70;99.90;;;;;;5121334;28;20696;-45
2021/01/13 05:59:30;;;;;;;11.30;5.57;;;0.80;99.90;;;;;;5120886;27;20457;-44
2021/01/13 06:02:00;;;;;;;7.57;4.57;;;0.80;99.90;;;;;;5120878;28;20451;-44
2021/01/13 06:04:26;;;;;;;9.47;5.30;;;0.80;99.90;;;;;;5120955;28;20535;-45
2021/01/13 06:06:58;;;;;;;10.37;4.60;;;0.80;99.90;;;;;;5120777;28;20424;-44
2021/01/13 06:09:25;;;;;;;7.90;5.20;;;0.80;99.90;;;;;;5119802;28;20695;-45
2021/01/13 06:11:55;;;;;;;8.83;5.40;;;0.70;99.90;;;;;;5119855;28;20410;-45
2021/01/13 06:14:28;;;;;;;10.67;5.10;;;0.70;99.90;;;;;;5120479;28;20806;-45
2021/01/13 06:16:55;;;;;;;8.20;4.67;;;0.70;99.90;;;;;;5119684;28;20457;-52
2021/01/13 06:19:21;;;;;;;10.43;5.70;;;0.70;99.90;;;;;;5120184;28;20416;-45
2021/01/13 06:21:47;;;;;;;10.37;6.37;;;0.60;99.90;;;;;;5128842;27;20873;-45
2021/01/13 06:24:14;;;;;;;8.83;5.30;;;0.60;99.90;;;;;;5140039;27;20415;-45
2021/01/13 06:26:53;;;;;;;8.97;5.73;;;0.60;99.90;;;;;;5138638;27;20424;-44
2021/01/13 06:29:51;;;;;;;9.57;6.47;;;0.60;99.90;;;;;;5137867;27;20405;-45
2021/01/13 06:32:30;;;;;;;11.17;5.20;;;0.60;99.90;;;;;;5092827;27;20421;-44
2021/01/13 06:35:15;;;;;;;12.00;6.00;;;0.50;99.90;;;;;;5138595;27;20423;-45
2021/01/13 06:37:48;;;;;;;9.27;5.90;;;0.50;99.90;;;;;;5136427;27;20405;-44
2021/01/13 06:40:19;;;;;;;9.30;6.17;;;0.50;99.90;;;;;;5137820;27;20889;-44
2021/01/13 06:42:45;;;;;;;12.07;5.80;;;0.50;99.90;;;;;;5138299;27;20762;-44
2021/01/13 06:45:12;;;;;;;7.80;6.17;;;0.50;99.90;;;;;;5137475;27;20458;-45
2021/01/13 06:47:56;;;;;;;13.37;6.90;;;0.40;99.90;;;;;;5139106;27;20549;-46
2021/01/13 06:50:38;;;;;;;7.50;5.77;;;0.40;99.90;;;;;;5139317;27;20839;-44
2021/01/13 06:53:13;;;;;;;10.47;6.50;;;0.40;99.90;;;;;;5140138;27;20413;-44
2021/01/13 06:55:42;;;;;;;13.60;7.60;;;0.40;99.90;;;;;;5139634;27;20749;-44
2021/01/13 06:58:11;;;;;;;14.93;6.80;;;0.40;99.90;;;;;;5139352;27;20411;-44
2021/01/13 07:00:37;;;;;;;11.77;7.23;;;0.40;99.90;;;;;;5139248;27;20737;-44
2021/01/13 07:03:25;;;;;;;12.60;7.83;;;0.40;99.90;;;;;;5139522;27;20500;-44
2021/01/13 07:05:55;;;;;;;9.63;6.77;;;0.40;99.90;;;;;;5140252;27;20432;-42
2021/01/13 07:08:21;;;;;;;7.90;6.67;;;0.40;99.90;;;;;;5140340;27;20419;-43
2021/01/13 07:11:05;;;;;;;9.47;7.20;;;0.40;99.90;;;;;;5140345;27;20424;-43
2021/01/13 07:13:40;;;;;;;9.90;7.63;;;0.30;99.90;;;;;;5140062;27;20447;-44
2021/01/13 07:16:07;;;;;;;10.43;7.00;;;0.30;99.90;;;;;;5138977;27;20468;-44
2021/01/13 07:18:36;;;;;;;10.30;7.50;;;0.40;99.90;;;;;;5139202;27;20627;-44
2021/01/13 07:21:10;;;;;;;11.53;7.20;;;0.40;99.90;;;;;;5138674;27;20803;-42
2021/01/13 07:23:44;;;;;;;9.40;7.00;;;0.40;99.90;;;;;;5138585;27;20424;-44
2021/01/13 07:26:12;;;;;;;13.00;7.70;;;0.30;99.90;;;;;;5127944;27;20448;-44
2021/01/13 07:28:38;;;;;;;11.43;7.40;;;0.40;99.90;;;;;;5133765;27;20501;-44
2021/01/13 07:31:05;;;;;;;9.80;7.30;;;0.40;99.90;;;;;;5119231;27;20453;-44
2021/01/13 07:33:43;;;;;;;10.43;7.40;;;0.40;99.90;;;;;;5139627;27;20440;-43
2021/01/13 07:36:18;;;;;;;11.57;7.93;;;0.40;99.90;;;;;;5124893;27;20437;-44
2021/01/13 07:38:44;;;;;;;11.30;7.90;;;0.40;99.90;;;;;;5134948;27;20439;-44
2021/01/13 07:41:46;;;;;;;12.10;7.93;;;0.30;99.90;;;;;;5127406;27;20461;-45
2021/01/13 07:44:37;;;;;;;14.80;8.27;;;0.30;99.90;;;;;;5116738;28;20191;-44
2021/01/13 07:47:03;;;;;;;9.03;6.60;;;0.30;99.90;;;;;;5137977;27;20413;-45
2021/01/13 07:50:16;;;;;;;10.30;6.73;;;0.20;99.90;;;;;;5137087;27;20841;-44
2021/01/13 07:52:47;;;;;;;10.30;7.07;;;0.30;99.90;;;;;;5116090;28;20464;-42
2021/01/13 07:55:18;;;;;;;10.67;6.90;;;0.20;99.90;;;;;;5125293;27;20417;-43
2021/01/13 07:57:54;;;;;;;9.07;6.47;;;0.20;99.90;;;;;;5138576;27;20683;-44
2021/01/13 08:00:27;;;;;;;12.43;6.93;;;0.30;99.90;;;;;;5137802;27;20551;-44
2021/01/13 08:02:58;;;;;;;10.73;6.80;;;0.40;99.90;;;;;;5138264;27;20496;-45
2021/01/13 08:05:44;;;;;;;9.23;6.10;;;0.50;99.90;;;;;;5138002;27;20420;-45
2021/01/13 08:08:11;;;;;;;8.60;6.40;;;0.50;99.90;;;;;;5096714;27;20497;-45
2021/01/13 08:10:39;;;;;;;11.80;6.57;;;0.70;99.90;;;;;;5138783;27;20481;-44
2021/01/13 08:13:26;;;;;;;9.63;6.97;;;0.60;99.90;;;;;;5139456;27;20440;-45
2021/01/13 08:16:16;;;;;;;8.63;6.57;;;0.80;99.90;;;;;;5138609;27;20416;-45
2021/01/13 08:18:48;;;;;;;9.30;7.33;;;0.90;99.90;;;;;;5139112;27;20705;-45
2021/01/13 08:21:33;;;;;;;11.20;6.70;;;0.90;99.90;;;;;;5138919;27;20476;-44
2021/01/13 08:24:15;;;;;;;10.50;7.93;;;0.80;99.90;;;;;;5137835;27;20516;-45
2021/01/13 08:26:41;;;;;;;12.50;7.47;;;0.90;99.90;;;;;;5135391;27;20694;-45
2021/01/13 08:29:20;;;;;;;8.67;6.70;;;1.00;99.90;;;;;;5138980;27;20504;-45
2021/01/13 08:31:50;;;;;;;11.17;7.10;;;1.40;99.90;;;;;;5138179;27;20420;-45
2021/01/13 08:34:18;;;;;;;7.10;5.60;;;1.50;99.40;;;;;;5136293;27;20420;-45
2021/01/13 08:36:55;;;;;;;9.83;5.50;;;1.90;98.90;;;;;;5137848;27;20429;-45
2021/01/13 08:39:31;;;;;;;12.50;6.50;;;2.30;98.20;;;;;;5138685;27;20401;-45
2021/01/13 08:42:21;;;;;;;11.83;5.63;;;2.70;97.00;;;;;;5129570;27;20500;-45
2021/01/13 08:44:48;;;;;;;9.83;4.80;;;2.60;96.00;;;;;;5116249;28;20441;-45
2021/01/13 08:47:14;;;;;;;14.67;6.00;;;2.40;96.20;;;;;;5128623;28;20420;-45
2021/01/13 08:49:40;;;;;;;8.30;5.03;;;2.60;95.90;;;;;;5136343;28;20423;-45
2021/01/13 08:52:17;;;;;;;6.33;4.80;;;3.00;96.00;;;;;;5098280;28;20461;-45
2021/01/13 08:54:56;;;;;;;7.40;4.10;;;3.20;94.80;;;;;;5118411;28;20432;-45
2021/01/13 08:57:26;;;;;;;7.73;4.13;;;3.30;94.50;;;;;;5116709;28;20501;-45
2021/01/13 08:59:52;;;;;;;4.80;4.17;;;3.60;94.50;;;;;;5131679;28;20464;-45
2021/01/13 09:02:21;;;;;;;7.10;3.73;;;3.60;93.70;;;;;;5124820;28;20429;-45
2021/01/13 09:04:55;;;;;;;10.57;4.20;;;3.70;93.20;;;;;;5136359;27;20507;-45
2021/01/13 09:07:28;;;;;;;4.30;3.90;;;3.80;93.60;;;;;;5114861;28;20514;-45
2021/01/13 09:10:01;;;;;;;10.77;4.17;;;3.60;93.50;;;;;;5115263;28;20530;-45
2021/01/13 09:12:44;;;;;;;5.03;4.20;;;3.90;93.40;;;;;;5117025;28;20554;-46
2021/01/13 09:15:20;;;;;;;5.20;3.50;;;3.50;92.50;;;;;;5115910;28;20448;-46
2021/01/13 09:17:54;;;;;;;6.93;4.17;;;3.20;93.20;;;;;;5117314;28;20539;-46
2021/01/13 09:20:26;;;;;;;5.17;3.80;;;3.10;93.70;;;;;;5121585;28;20574;-46
2021/01/13 09:22:57;;;;;;;5.60;3.70;;;2.80;94.30;;;;;;5136650;28;20920;-46
2021/01/13 09:25:24;;;;;;;7.83;3.67;;;3.00;94.80;;;;;;5135792;28;20493;-46
2021/01/13 09:27:55;;;;;;;9.73;4.70;;;3.00;94.80;;;;;;5125721;28;20464;-45
2021/01/13 09:30:30;;;;;;;5.87;5.27;;;2.60;94.80;;;;;;5117218;28;20532;-45
2021/01/13 09:32:58;;;;;;;5.60;4.70;;;2.50;95.40;;;;;;5116750;28;20552;-45
2021/01/13 09:35:25;;;;;;;8.73;4.63;;;2.20;95.80;;;;;;5118738;28;20463;-45
2021/01/13 09:37:54;;;;;;;9.10;4.57;;;2.10;96.50;;;;;;5116146;28;20417;-45
2021/01/13 09:40:21;;;;;;;5.47;4.97;;;2.00;96.70;;;;;;5116734;28;20530;-44
2021/01/13 09:42:55;;;;;;;8.30;4.57;;;1.90;97.10;;;;;;5130545;28;20550;-45
2021/01/13 09:45:21;;;;;;;7.17;4.53;;;2.00;97.20;;;;;;5132522;27;20427;-47
2021/01/13 09:47:48;;;;;;;10.30;4.80;;;1.90;96.90;;;;;;5116682;28;20482;-45
2021/01/13 09:50:20;;;;;;;7.03;5.20;;;1.80;97.20;;;;;;5114178;28;20491;-44
2021/01/13 09:52:47;;;;;;;5.90;5.30;;;1.80;97.60;;;;;;5118858;28;20413;-44
2021/01/13 09:55:13;;;;;;;17.00;7.60;;;1.80;97.50;;;;;;5119892;28;20527;-45
2021/01/13 09:57:42;;;;;;;10.23;6.97;;;1.70;98.00;;;;;;5119299;28;20437;-44
2021/01/13 10:00:10;;;;;;;8.53;6.23;;;1.90;97.80;;;;;;5120329;28;20908;-44
2021/01/13 10:02:36;;;;;;;8.57;5.87;;;1.90;97.60;;;;;;5119534;28;20413;-44
2021/01/13 10:05:02;;;;;;;8.80;4.57;;;2.00;97.50;;;;;;5118577;28;20491;-44
2021/01/13 10:07:33;;;;;;;9.90;4.20;;;2.30;97.00;;;;;;5119831;28;20716;-44
2021/01/13 10:10:01;;;;;;;8.23;4.83;;;2.50;96.90;;;;;;5118224;28;20429;-44
2021/01/13 10:12:49;;;;;;;7.43;4.20;;;2.70;96.30;;;;;;5119338;28;20600;-43
2021/01/13 10:15:15;;;;;;;10.47;5.10;;;2.90;96.00;;;;;;5119982;28;20434;-44
2021/01/13 10:17:42;;;;;;;8.37;5.73;;;2.70;95.50;;;;;;5119567;28;20474;-44
2021/01/13 10:20:15;;;;;;;7.33;4.57;;;2.60;96.00;;;;;;5120183;28;20606;-44
2021/01/13 10:22:42;;;;;;;6.60;4.87;;;2.80;96.20;;;;;;5119042;28;20417;-45
2021/01/13 10:25:08;;;;;;;6.30;4.23;;;3.50;96.20;;;;;;5116736;28;20745;-44
2021/01/13 10:27:41;;;;;;;9.27;5.50;;;3.50;94.60;;;;;;5116934;28;20835;-45
2021/01/13 10:30:09;;;;;;;6.03;4.30;;;3.20;94.90;;;;;;5116380;28;20426;-44
2021/01/13 10:32:46;;;;;;;8.70;4.17;;;3.70;95.20;;;;;;5117105;28;20414;-44
2021/01/13 10:35:13;;;;;;;7.37;4.50;;;3.90;94.00;;;;;;5119684;27;20421;-44
2021/01/13 10:37:52;;;;;;;6.23;4.33;;;3.90;94.10;;;;;;5118209;28;20414;-44
2021/01/13 10:40:19;;;;;;;8.83;4.50;;;3.90;94.10;;;;;;5119445;28;20792;-44
2021/01/13 10:42:51;;;;;;;6.50;4.20;;;3.90;93.90;;;;;;5118730;28;20470;-44
2021/01/13 10:45:17;;;;;;;5.07;3.70;;;3.90;94.30;;;;;;5119705;28;20672;-44
2021/01/13 10:47:58;;;;;;;6.13;4.93;;;3.80;93.90;;;;;;5119651;28;20406;-44
2021/01/13 10:50:27;;;;;;;9.50;5.00;;;4.10;94.10;;;;;;5119745;28;20421;-44
2021/01/13 10:52:55;;;;;;;6.80;5.90;;;4.40;93.60;;;;;;5118847;28;20705;-44
2021/01/13 10:55:26;;;;;;;6.30;4.40;;;3.80;93.80;;;;;;5122953;27;20750;-44
2021/01/13 10:57:53;;;;;;;8.10;4.67;;;3.80;94.50;;;;;;5140431;27;20421;-44
2021/01/13 11:00:20;;;;;;;8.10;4.60;;;3.60;94.50;;;;;;5138896;27;20502;-44
2021/01/13 11:03:02;;;;;;;6.53;4.43;;;3.80;94.70;;;;;;5137783;27;20475;-44
2021/01/13 11:05:31;;;;;;;5.80;4.37;;;3.30;95.40;;;;;;5138392;27;20425;-45
2021/01/13 11:07:57;;;;;;;9.00;4.53;;;3.30;95.30;;;;;;5138422;27;20417;-44
2021/01/13 11:10:24;;;;;;;11.97;4.70;;;3.00;95.70;;;;;;5139203;27;20440;-44
2021/01/13 11:13:08;;;;;;;7.90;4.73;;;2.90;96.10;;;;;;5139178;27;20194;-44
2021/01/13 11:15:34;;;;;;;6.53;4.50;;;3.10;96.10;;;;;;5132134;27;20866;-45
2021/01/13 11:18:00;;;;;;;6.03;4.40;;;3.30;95.70;;;;;;5119032;28;20508;-44
2021/01/13 11:20:33;;;;;;;6.97;4.27;;;3.50;95.00;;;;;;5118000;28;20497;-44
2021/01/13 11:23:02;;;;;;;6.70;4.23;;;3.40;94.80;;;;;;5120844;27;20485;-44
2021/01/13 11:25:36;;;;;;;7.00;3.97;;;3.20;95.60;;;;;;5118883;28;20816;-45
2021/01/13 11:28:15;;;;;;;6.50;4.10;;;3.40;95.30;;;;;;5118744;28;20401;-45
2021/01/13 11:30:43;;;;;;;7.87;5.60;;;3.40;95.10;;;;;;5118929;28;20556;-45
2021/01/13 11:33:11;;;;;;;7.83;4.43;;;3.30;95.70;;;;;;5119092;28;20412;-45
2021/01/13 11:35:50;;;;;;;6.40;3.83;;;3.40;95.40;;;;;;5115737;28;20499;-45
2021/01/13 11:38:34;;;;;;;6.37;3.57;;;3.10;95.20;;;;;;5118194;28;20425;-45
2021/01/13 11:41:38;;;;;;;9.63;3.87;;;3.20;95.20;;;;;;5118531;28;20460;-45
2021/01/13 11:44:20;;;;;;;5.63;3.90;;;3.30;94.80;;;;;;5118441;28;20543;-45
2021/01/13 11:46:53;;;;;;;9.30;3.20;;;3.20;94.90;;;;;;5118404;28;20406;-45
2021/01/13 11:49:34;;;;;;;6.60;2.93;;;3.30;95.10;;;;;;5117344;28;20409;-44
2021/01/13 11:52:07;;;;;;;4.90;3.10;;;3.00;94.70;;;;;;5118587;28;20416;-45
2021/01/13 11:54:34;;;;;;;4.33;3.20;;;3.20;95.10;;;;;;5119361;28;20884;-45
2021/01/13 11:57:23;;;;;;;6.93;2.87;;;3.20;94.50;;;;;;5119356;27;20695;-45
2021/01/13 11:59:53;;;;;;;5.83;2.47;;;3.30;94.20;;;;;;5117993;28;20958;-45
2021/01/13 12:02:24;;;;;;;7.10;3.07;;;3.20;93.90;;;;;;5118621;28;20422;-45
2021/01/13 12:04:50;;;;;;;3.23;2.57;;;3.40;94.10;;;;;;5118350;28;20428;-45
2021/01/13 12:07:16;;;;;;;4.40;2.10;;;3.70;93.60;;;;;;5118183;28;20433;-44
2021/01/13 12:09:43;;;;;;;3.07;2.77;;;3.70;93.10;;;;;;5118114;28;20426;-45
2021/01/13 12:12:09;;;;;;;4.77;2.77;;;3.40;92.90;;;;;;5117459;28;20413;-45
2021/01/13 12:14:43;;;;;;;3.43;2.33;;;3.40;93.40;;;;;;5117624;28;20405;-45
2021/01/13 12:17:09;;;;;;;9.13;2.87;;;3.70;93.20;;;;;;5117508;28;20465;-45
2021/01/13 12:19:39;;;;;;;5.23;2.33;;;3.60;92.70;;;;;;5118365;28;20414;-44
2021/01/13 12:22:05;;;;;;;3.60;2.30;;;3.40;92.90;;;;;;5118894;28;20684;-45
2021/01/13 12:24:39;;;;;;;6.03;2.73;;;3.30;93.60;;;;;;5116963;28;20412;-45
2021/01/13 12:27:25;;;;;;;4.43;3.10;;;3.30;93.50;;;;;;5118060;28;20414;-45
2021/01/13 12:30:12;;;;;;;2.57;1.77;;;3.60;93.40;;;;;;5118239;28;20425;-45
2021/01/13 12:32:40;;;;;;;4.60;2.10;;;3.50;92.70;;;;;;5117489;28;20471;-45
2021/01/13 12:35:08;;;;;;;4.10;2.10;;;3.40;92.80;;;;;;5117668;28;20680;-45
2021/01/13 12:37:50;;;;;;;7.70;3.10;;;3.60;92.70;;;;;;5117410;28;20711;-45
2021/01/13 12:40:28;;;;;;;5.10;2.20;;;3.50;92.70;;;;;;5117196;28;20464;-45
2021/01/13 12:42:54;;;;;;;3.70;1.83;;;3.20;92.40;;;;;;5117788;28;20665;-45
2021/01/13 12:45:19;;;;;;;4.47;1.90;;;3.10;92.90;;;;;;5118312;28;20574;-45
2021/01/13 12:47:54;;;;;;;6.90;1.70;;;3.40;92.50;;;;;;5118319;28;20239;-45
2021/01/13 12:50:20;;;;;;;4.30;1.37;;;3.90;91.80;;;;;;5118035;28;20183;-45
2021/01/13 12:52:46;;;;;;;5.43;2.30;;;3.90;91.00;;;;;;5116516;28;20413;-45
2021/01/13 12:55:11;;;;;;;3.83;1.50;;;4.40;90.70;;;;;;5117761;28;20188;-45
2021/01/13 12:57:37;;;;;;;3.83;2.07;;;5.10;90.50;;;;;;5117894;28;20210;-45
2021/01/13 13:00:04;;;;;;;2.37;1.33;;;5.50;87.60;;;;;;5116918;28;20298;-45
2021/01/13 13:02:30;;;;;;;4.33;1.57;;;5.10;87.10;;;;;;5117188;28;21225;-45
2021/01/13 13:04:56;;;;;;;9.90;2.60;;;5.10;85.90;;;;;;5117133;28;20425;-44
2021/01/13 13:07:21;;;;;;;5.17;1.77;;;4.80;86.80;;;;;;5117343;28;20188;-45
2021/01/13 13:09:49;;;;;;;2.73;1.80;;;4.00;87.90;;;;;;5116085;28;20212;-45
2021/01/13 13:12:15;;;;;;;5.87;2.00;;;3.90;89.10;;;;;;5115978;28;20183;-45
2021/01/13 13:14:41;;;;;;;1.73;1.00;;;4.00;90.00;;;;;;5117148;28;20429;-45
2021/01/13 13:17:08;;;;;;;5.07;2.33;;;3.90;90.10;;;;;;5117086;28;20473;-45
2021/01/13 13:19:34;;;;;;;5.10;2.00;;;4.60;88.50;;;;;;5117088;28;20421;-45